createdAt,value
2019-03-02T08:04:20.344Z,39.55
2019-03-02T08:09:25.905Z,40.80
2019-03-02T08:14:31.547Z,39.80
2019-03-02T08:19:39.252Z,40.50
2019-03-02T08:24:48.155Z,40.08
2019-03-02T08:29:58.120Z,37.30
2019-03-02T08:35:04.966Z,36.33
2019-03-02T08:40:23.464Z,39.03
2019-03-02T08:45:27.673Z,38.80
2019-03-02T08:50:33.390Z,42.30
2019-03-02T08:55:39.169Z,39.13
2019-03-02T09:00:43.564Z,38.42
2019-03-02T09:05:51.645Z,40.30
2019-03-02T09:10:56.763Z,39.60
2019-03-02T09:16:05.378Z,41.08
2019-03-02T09:21:12.418Z,43.83
2019-03-02T09:38:27.962Z,37.10
2019-03-02T09:44:00.968Z,36.40
2019-03-02T09:49:18.598Z,41.53
2019-03-02T09:54:19.735Z,41.07
2019-03-02T09:59:24.616Z,41.13
2019-03-02T10:04:29.160Z,39.75
2019-03-02T10:09:37.760Z,41.00
2019-03-02T10:14:45.988Z,41.53
2019-03-02T10:20:21.669Z,48.25
2019-03-02T10:25:48.429Z,46.67
2019-03-02T10:31:21.331Z,45.10
2019-03-02T10:36:54.574Z,45.37
2019-03-02T10:42:12.913Z,46.20
2019-03-02T10:47:22.153Z,45.87
2019-03-02T10:52:31.678Z,46.50
2019-03-02T10:57:55.235Z,44.60
2019-03-02T11:03:16.538Z,47.20
2019-03-02T11:08:43.180Z,43.52
2019-03-02T11:37:11.054Z,47.50
2019-03-02T11:43:05.098Z,47.50
2019-03-02T11:49:04.314Z,43.63
2019-03-02T11:54:16.364Z,46.30
2019-03-02T12:00:00.810Z,44.90
2019-03-02T12:05:36.338Z,43.98
2019-03-02T12:10:48.123Z,46.50
2019-03-02T12:16:29.489Z,42.77
2019-03-02T13:12:22.757Z,35.15
2019-03-02T13:34:27.474Z,30.50
2019-03-02T22:40:05.692Z,7.25
